Sign Up for Free

Track your rides and runs via your iPhone, Android or GPS device, analyze your performance, and compare with friends.

MTB Strava Segment Challenge

Ride Segment Monterey, CA
  • 0.4km
    Distance
  • 9%
    Avg Grade
  • 244m
    Lowest Elev
  • 284m
    Highest Elev
  • 40m
    Elev Difference
  • 1,773 Attempts By 1,163 People

Men's Leaderboard

Rank Name Speed Power Time
1 Jean Louis Bourdevaire /. 15.5km/h 270W 1:38
2 Imeh Nsek 15.4km/h 355W 1:39
2 Pacheco B. 15.4km/h 335W 1:39
4 Joe Pirelli 15.2km/h 395W 1:40
4 Greg Hillson : Bar Fly 15.2km/h 384W Powermeter 1:40
4 Sean Bennett 15.2km/h 272W 1:40
7 Rick Cotter 15.1km/h - 1:41
7 Kurt Wolfgang 15.1km/h 377W 1:41
9 Steve H. 14.9km/h 382W 1:42
9 Raphael Auclair 14.9km/h 373W 1:42
9 Tofor Lewis 14.9km/h 315W 1:42
9 Burke Kennedy 14.9km/h 321W 1:42
13 Brian G. 14.8km/h 308W 1:43
13 D L. 14.8km/h 341W 1:43
13 Dax Massey 14.8km/h 313W 1:43
16 Pain Train 14.6km/h 409W 1:44
16 Matt Adams 14.6km/h 358W 1:44
18 Jerry Dufour 14.5km/h 252W 1:45
18 Bryce Lewis 14.5km/h 296W 1:45
18 Mason Marlow 14.5km/h 306W 1:45

Join Strava to see the full leaderboard

Women's Leaderboard

Rank Name Speed Power Time
1 Chantel Duliba 10.9km/h 218W 2:20
2 Kris G. 10.6km/h 217W 2:23
3 Annie V. 10.6km/h 223W 2:24
4 Caroline D. 10.2km/h 171W 2:30
5 Caro Gomez Villafañe 10.1km/h 180W 2:31
6 Maggie Y. 10.0km/h 165W 2:33
7 Amber B. 9.9km/h 211W Powermeter 2:34
8 Petra Kirberg 9.8km/h 190W 2:35
9 Lindsay Chirdon 9.8km/h 174W 2:36
10 Tracy Gaucher 9.7km/h 126W 2:37
11 Julie S. 9.5km/h 135W 2:40
11 Jane Kerner 9.5km/h 187W 2:40
13 Naomi H. 9.5km/h 188W 2:41
14 Cadence Lee 9.4km/h 184W 2:42
15 pame hwang 9.3km/h 129W 2:43
16 Ashley Albor 9.3km/h 162W 2:44
16 Iris Fox 9.3km/h 146W 2:44
18 Cari L. 9.2km/h 162W 2:45
19 Liia S. 9.2km/h 165W 2:46
19 Christie R. 9.2km/h 189W 2:46